Terminal Aerodrome Forecast
Issued by NWS

Home | Current Version | Previous Version | Text Only | Print | Product List | Glossary On
Versions: 1 2 3 4 5 6 7 8 9 10 11 12 13 14 15 16 17 18 19 20 21 22 23
000
FTPA31 PHFO 242300
TAFJHM
TAF
PHJH 242320Z 2500/2524 03017KT P6SM FEW030 SCT050
     FM250800 04010KT P6SM FEW030 BKN050
     FM252000 03014KT P6SM FEW030 SCT050
      AMD NOT SKED AFT 250400=

USA.gov is the U.S. government's official web portal to all federal, state and local government web resources and services.